Time;durP1;ratioP1;P1;durP2;ratioP2;P2;SDS_P1;SDS_P2;PMS_P1;PMS_P2;Temp;Humidity;BMP_temperature;BMP_pressure;BME280_temperature;BME280_humidity;BME280_pressure;Samples;Min_cycle;Max_cycle;Signal;HPM_P1;HPM_P2
2024/01/20 00:04:41;;;;;;;45.57;14.83;;;;;;;8.77;100.00;99434.84;30993880;28;20743;-75
2024/01/20 00:19:43;;;;;;;34.07;12.60;;;;;;;8.62;100.00;99433.66;30986961;28;20503;-74
2024/01/20 00:34:46;;;;;;;49.47;15.50;;;;;;;8.54;100.00;99452.75;30979744;28;20120;-74
2024/01/20 00:50:07;;;;;;;33.97;12.13;;;;;;;8.50;100.00;99481.81;30974211;28;20050;-74
2024/01/20 01:05:09;;;;;;;35.33;11.40;;;;;;;8.57;100.00;99507.19;30967048;28;20062;-75
2024/01/20 01:20:11;;;;;;;20.03;8.20;;;;;;;8.27;100.00;99519.00;31006928;28;20141;-74
2024/01/20 01:35:14;;;;;;;12.13;5.67;;;;;;;8.10;100.00;99469.47;30996992;28;20057;-74
2024/01/20 01:50:16;;;;;;;17.23;7.63;;;;;;;8.09;100.00;99525.47;31009410;28;20414;-75
2024/01/20 02:05:18;;;;;;;10.50;5.13;;;;;;;7.92;100.00;99540.09;30993241;28;20058;-74
2024/01/20 02:20:22;;;;;;;12.57;6.07;;;;;;;7.63;100.00;99574.16;30996977;28;20057;-75
2024/01/20 02:35:24;;;;;;;15.57;7.97;;;;;;;6.71;100.00;99590.50;30987350;28;20493;-74
2024/01/20 02:50:26;;;;;;;17.23;9.50;;;;;;;6.28;100.00;99636.06;30995970;28;20146;-74
2024/01/20 03:05:28;;;;;;;15.53;8.40;;;;;;;6.18;100.00;99650.38;30979566;28;23651;-75
2024/01/20 03:20:30;;;;;;;15.73;9.20;;;;;;;6.05;100.00;99665.53;30977813;28;20446;-74
2024/01/20 03:35:32;;;;;;;27.23;11.50;;;;;;;6.10;100.00;99673.19;31004451;28;20058;-74
2024/01/20 03:50:35;;;;;;;25.93;11.57;;;;;;;6.08;100.00;99688.97;31022538;28;20066;-74
2024/01/20 04:05:39;;;;;;;19.87;10.63;;;;;;;6.04;100.00;99699.03;30989712;28;20077;-75
2024/01/20 04:20:42;;;;;;;23.77;12.10;;;;;;;5.85;100.00;99753.41;30997925;28;20054;-74
2024/01/20 04:35:44;;;;;;;26.93;11.17;;;;;;;5.79;100.00;99747.66;30994661;28;21034;-74
2024/01/20 04:50:46;;;;;;;25.80;10.90;;;;;;;5.73;100.00;99795.78;30987121;28;20061;-74
2024/01/20 05:05:49;;;;;;;17.63;9.63;;;;;;;5.77;100.00;99831.53;30986172;28;20054;-82
2024/01/20 05:20:50;;;;;;;11.77;6.90;;;;;;;5.64;100.00;99870.84;30966037;28;20510;-82
2024/01/20 05:35:53;;;;;;;10.53;5.57;;;;;;;5.57;100.00;99911.25;31012505;28;20042;-82
2024/01/20 05:50:55;;;;;;;9.70;4.23;;;;;;;5.51;100.00;99923.56;30996839;28;20269;-82
2024/01/20 06:05:57;;;;;;;9.23;4.47;;;;;;;5.58;100.00;99955.13;30994632;28;20050;-82
2024/01/20 06:21:02;;;;;;;5.33;3.03;;;;;;;5.55;100.00;99969.34;30992581;28;20176;-84
2024/01/20 06:36:04;;;;;;;4.50;3.00;;;;;;;5.50;100.00;100024.34;31005144;28;20077;-82
2024/01/20 06:51:07;;;;;;;5.07;3.17;;;;;;;5.57;100.00;100064.75;31010914;28;20524;-84
2024/01/20 07:06:09;;;;;;;9.00;3.13;;;;;;;5.52;100.00;100097.44;31016605;28;20409;-83
2024/01/20 07:21:11;;;;;;;7.20;3.80;;;;;;;5.57;100.00;100070.13;31019654;28;20058;-82
2024/01/20 07:36:13;;;;;;;9.80;4.50;;;;;;;5.50;100.00;100118.59;31054805;28;20061;-83
2024/01/20 07:51:15;;;;;;;16.43;4.83;;;;;;;5.41;100.00;100155.91;31000786;28;20069;-85
2024/01/20 08:06:17;;;;;;;13.70;5.60;;;;;;;5.02;100.00;100147.69;31023937;28;20051;-83
2024/01/20 08:21:20;;;;;;;12.90;5.53;;;;;;;5.14;100.00;100220.03;31002059;28;20058;-84
2024/01/20 08:36:22;;;;;;;10.47;5.13;;;;;;;5.09;100.00;100247.28;31020061;28;20058;-82
2024/01/20 08:51:25;;;;;;;8.87;3.80;;;;;;;5.10;100.00;100256.91;31024738;28;20541;-82
2024/01/20 09:06:27;;;;;;;9.70;3.20;;;;;;;5.89;100.00;100263.38;31013882;28;20054;-82
2024/01/20 09:21:29;;;;;;;7.43;3.07;;;;;;;6.18;100.00;100291.13;31014909;28;20459;-82
2024/01/20 09:36:31;;;;;;;7.30;3.47;;;;;;;5.16;100.00;100309.22;30995207;28;20121;-83
2024/01/20 09:51:35;;;;;;;4.47;2.27;;;;;;;4.71;100.00;100321.25;31014091;28;20065;-81
2024/01/20 10:06:37;;;;;;;4.43;2.53;;;;;;;5.45;100.00;100310.13;31039734;28;20101;-82
2024/01/20 10:21:43;;;;;;;7.00;2.73;;;;;;;4.90;100.00;100318.28;31048925;28;20058;-76
2024/01/20 10:36:45;;;;;;;5.37;2.83;;;;;;;5.00;100.00;100335.63;31051121;28;20145;-75
2024/01/20 10:51:48;;;;;;;5.17;2.47;;;;;;;5.04;100.00;100361.44;31016789;28;20066;-77
2024/01/20 11:06:50;;;;;;;6.13;2.53;;;;;;;5.23;100.00;100389.22;31003433;28;20061;-76
2024/01/20 11:21:52;;;;;;;3.63;2.43;;;;;;;5.23;100.00;100410.75;30997629;28;20519;-79
2024/01/20 11:36:57;;;;;;;4.27;2.20;;;;;;;5.07;100.00;100419.88;31022759;28;20150;-76
2024/01/20 11:52:00;;;;;;;7.13;3.60;;;;;;;5.16;100.00;100453.78;31023080;28;20097;-76
2024/01/20 12:07:02;;;;;;;4.63;2.60;;;;;;;4.89;100.00;100494.31;31006607;28;20588;-78
2024/01/20 12:22:09;;;;;;;5.73;3.30;;;;;;;5.03;100.00;100525.94;30972602;28;20542;-76
2024/01/20 12:37:11;;;;;;;4.10;2.60;;;;;;;5.01;100.00;100555.13;30999997;28;20058;-76
2024/01/20 12:52:13;;;;;;;5.83;3.03;;;;;;;4.98;100.00;100582.75;30999160;28;20054;-78
2024/01/20 13:07:15;;;;;;;6.80;2.60;;;;;;;4.83;100.00;100589.16;30985914;28;20099;-75
2024/01/20 13:22:18;;;;;;;4.77;2.70;;;;;;;4.71;100.00;100612.47;30981542;28;20058;-77
2024/01/20 13:37:19;;;;;;;2.93;2.00;;;;;;;4.73;100.00;100636.28;30979601;28;20061;-76
2024/01/20 13:52:24;;;;;;;6.97;3.43;;;;;;;4.93;100.00;100640.41;30989923;28;20097;-77
2024/01/20 14:07:26;;;;;;;5.00;2.60;;;;;;;4.76;100.00;100675.91;30993565;28;20046;-79
2024/01/20 14:22:29;;;;;;;5.83;2.73;;;;;;;4.95;100.00;100718.84;31006034;28;20050;-76
2024/01/20 14:37:31;;;;;;;8.43;3.63;;;;;;;5.83;100.00;100729.81;30987445;28;20224;-76
2024/01/20 14:52:33;;;;;;;21.40;8.17;;;;;;;5.85;100.00;100745.63;31010256;28;20163;-77
2024/01/20 15:07:35;;;;;;;20.63;9.63;;;;;;;5.68;100.00;100756.97;31033769;28;20141;-77
2024/01/20 15:22:37;;;;;;;23.87;10.30;;;;;;;5.44;100.00;100804.78;31014250;28;20129;-80
2024/01/20 15:37:42;;;;;;;28.40;10.33;;;;;;;5.41;100.00;100808.25;31022396;28;20100;-78
2024/01/20 15:52:44;;;;;;;28.73;11.00;;;;;;;5.18;100.00;100828.31;31027914;28;20197;-84
2024/01/20 16:07:46;;;;;;;25.20;11.13;;;;;;;4.98;100.00;100841.84;31059287;28;20429;-81
2024/01/20 16:22:48;;;;;;;19.53;10.73;;;;;;;5.08;100.00;100878.91;31000974;28;20058;-80
2024/01/20 16:37:51;;;;;;;20.63;9.60;;;;;;;4.64;100.00;100880.53;31019751;28;20498;-82
2024/01/20 16:52:53;;;;;;;25.43;10.47;;;;;;;4.78;100.00;100908.41;30998942;28;20139;-82
2024/01/20 17:07:55;;;;;;;34.57;11.97;;;;;;;5.10;100.00;100903.56;30994752;28;20483;-79
2024/01/20 17:22:59;;;;;;;29.13;11.77;;;;;;;4.91;100.00;100911.72;30985544;28;20447;-81
2024/01/20 17:38:15;;;;;;;17.43;9.10;;;;;;;4.66;100.00;100929.34;31008910;28;20201;-79
2024/01/20 17:53:17;;;;;;;21.43;9.53;;;;;;;4.45;100.00;100938.59;31016209;28;20069;-78
2024/01/20 18:08:19;;;;;;;27.23;11.90;;;;;;;4.60;100.00;100955.75;31019413;28;20043;-79
2024/01/20 18:23:21;;;;;;;22.53;12.47;;;;;;;4.47;100.00;100973.19;30999579;28;20090;-82
2024/01/20 18:38:23;;;;;;;29.67;12.93;;;;;;;4.52;100.00;100990.94;31025227;28;20074;-80
2024/01/20 18:53:25;;;;;;;22.83;10.93;;;;;;;4.20;100.00;100993.78;31017146;28;20065;-78
2024/01/20 19:08:27;;;;;;;18.93;9.90;;;;;;;4.34;100.00;101004.81;31010819;28;20521;-81
2024/01/20 19:23:52;;;;;;;15.33;7.50;;;;;;;4.32;100.00;101025.88;31076983;28;20054;-82
2024/01/20 19:38:57;;;;;;;10.63;5.03;;;;;;;4.08;100.00;101042.28;31022675;28;20093;-81
2024/01/20 19:53:59;;;;;;;12.93;4.93;;;;;;;3.83;100.00;101055.16;31041165;28;20050;-80
2024/01/20 20:09:02;;;;;;;10.00;5.17;;;;;;;3.83;100.00;101073.94;31017298;28;20047;-83
2024/01/20 20:24:04;;;;;;;13.20;4.77;;;;;;;4.17;100.00;101099.28;31024317;28;20145;-79
2024/01/20 20:39:07;;;;;;;9.93;4.67;;;;;;;4.11;100.00;101111.44;31012817;28;20056;-79
2024/01/20 20:54:09;;;;;;;8.47;4.87;;;;;;;3.87;100.00;101112.41;31043222;28;20057;-82
2024/01/20 21:09:15;;;;;;;9.33;5.00;;;;;;;4.04;100.00;101127.38;31011473;28;20054;-82
2024/01/20 21:24:17;;;;;;;10.10;5.03;;;;;;;3.70;100.00;101153.06;31010978;28;20506;-80
2024/01/20 21:39:19;;;;;;;9.60;5.83;;;;;;;3.81;100.00;101156.00;30986595;28;20081;-81
2024/01/20 21:54:22;;;;;;;11.03;6.23;;;;;;;3.70;100.00;101167.28;31030549;28;20062;-75
2024/01/20 22:09:24;;;;;;;15.90;7.53;;;;;;;3.95;100.00;101162.50;31012048;28;20124;-76
2024/01/20 22:24:26;;;;;;;9.43;5.80;;;;;;;4.03;100.00;101148.09;31014051;28;20057;-75
2024/01/20 22:39:28;;;;;;;12.10;5.77;;;;;;;4.03;100.00;101141.94;31021611;28;20058;-75
2024/01/20 22:54:33;;;;;;;11.20;5.20;;;;;;;4.01;100.00;101173.78;31005314;28;20549;-76
2024/01/20 23:09:35;;;;;;;8.10;5.57;;;;;;;4.01;100.00;101195.28;30974745;28;20064;-75
2024/01/20 23:24:37;;;;;;;13.00;6.77;;;;;;;2.97;100.00;101202.50;31005658;28;20070;-76
2024/01/20 23:39:39;;;;;;;14.07;6.47;;;;;;;3.02;100.00;101206.84;31004573;28;20823;-74
2024/01/20 23:54:41;;;;;;;11.57;5.97;;;;;;;2.96;100.00;101219.72;31015750;28;20483;-76
